Terminal Aerodrome Forecast
Issued by NWS

Home | Current Version | Previous Version | Text Only | Print | Product List | Glossary On
Versions: 1 2 3 4 5 6 7 8 9 10 11 12 13
000
FTAK31 PAJN 201727
TAFAGY
TAF
PAGY 201727Z 2018/2118 VRB03KT P6SM -SHRA BKN015 OVC025
     FM202100 20015G25KT P6SM -SHRA SCT025 OVC035
     FM210700 20010KT P6SM -SHRA OVC025
     FM211500 04005KT P6SM -SHRA SCT025 OVC040
      AMD LTD TO CLD VIS AND WIND=

USA.gov is the U.S. government's official web portal to all federal, state and local government web resources and services.